Latest Weather Observations for Argyle

IDD60801

Issued at 8:01 pm CST Friday 19 December 2014 (issued every 30 minutes, with the page automatically refreshed every 10 minutes)

About weather observations | Map of weather stations | Latest weather observations for NT | Other Formats
Station Details ID: 002064 Name: ARGYLE AERODROME Lat: -16.64 Lon: 128.45 Height: 164.0 m
Data from the previous 72 hours. | See also: Recent months at Argyle
Date/Time
CST
Temp
°C
App
Temp
°C
Dew
Point
Rel
Hum
%
Delta-T
°C
Wind Press
QNH
hPa
Press
MSL
hPa
Rain
since 9 am
mm
Dir
 
Spd
km/h
Gust
km/h
Spd
kts
Gust
kts
19/07:00pm 34.5 33.1 18.9 39 10.3 ESE 24 39 13 21 1008.1 - 0.0
19/06:30pm 37.4 38.7 19.3 34 12.1 S 11 17 6 9 1007.4 - 0.0
19/06:00pm 37.5 39.3 19.5 35 12.1 S 9 17 5 9 1006.7 - 0.0
19/05:30pm 37.7 38.7 19.4 34 12.3 SSW 13 24 7 13 1006.7 - 0.0
19/05:00pm 37.1 37.6 18.3 33 12.4 S 13 20 7 11 1006.7 - 0.0
19/04:30pm 36.8 38.5 19.3 36 11.7 S 9 13 5 7 1006.9 1005.5 0.0
19/04:00pm 36.8 38.0 19.1 35 11.8 SSE 11 17 6 9 1007.6 - 0.0
19/03:30pm 36.7 37.4 19.6 36 11.5 SSE 15 22 8 12 1008.2 - 0.0
19/03:00pm 36.5 37.8 20.2 38 11.0 S 13 20 7 11 1008.8 - 0.0
19/02:30pm 36.2 37.6 20.4 39 10.7 SSE 13 24 7 13 1009.3 - 0.0
19/02:00pm 36.1 36.8 20.4 40 10.6 SSW 17 26 9 14 1009.9 - 0.0
19/01:30pm 36.5 36.4 20.8 40 10.7 SW 22 28 12 15 1010.3 1008.9 0.0
19/01:00pm 36.3 37.9 21.4 42 10.2 S 15 20 8 11 1010.8 - 0.0
19/12:30pm 35.2 36.5 20.9 43 9.7 S 15 28 8 15 1011.4 - 0.0
19/11:30am 34.2 35.2 21.8 48 8.5 SSE 19 30 10 16 1012.2 - 0.0
19/11:00am 33.8 36.2 22.3 51 7.9 SE 13 26 7 14 1012.4 - 0.0
19/10:30am 33.2 35.8 22.6 53 7.3 SE 13 20 7 11 1012.4 1011.0 18.6
19/10:00am 32.1 35.0 21.8 54 7.0 SSE 9 13 5 7 1012.4 - 18.6
19/09:30am 31.4 34.2 21.5 55 6.7 S 9 15 5 8 1012.1 - 18.6
19/09:00am 30.4 32.2 21.9 60 5.8 S 15 20 8 11 1012.1 - 18.6
19/08:30am 30.2 32.9 22.8 64 5.1 SSE 13 17 7 9 1011.7 - 18.6
19/08:00am 28.9 32.4 22.8 69 4.2 SSE 9 13 5 7 1011.2 - 18.6
19/07:30am 27.5 31.5 23.7 80 2.6 SSE 9 13 5 7 1010.8 1009.4 18.6
19/07:00am 26.8 30.6 23.5 82 2.3 S 9 13 5 7 1010.6 - 18.6
19/06:30am 26.5 32.6 24.5 89 1.4 CALM 0 0 0 0 1010.6 - 18.6
19/06:00am 26.7 31.6 24.3 87 1.7 E 6 7 3 4 1010.2 - 18.6
19/05:30am 27.1 31.6 23.6 81 2.4 SE 6 7 3 4 1010.1 - 18.6
19/05:00am 27.4 31.5 23.0 77 3.0 SE 6 13 3 7 1010.0 - 18.6
19/04:30am 27.3 32.4 24.1 83 2.2 N 4 7 2 4 1010.4 1009.0 18.6
19/04:00am 27.2 31.9 24.0 83 2.2 SE 6 9 3 5 1010.1 - 18.6
19/03:30am 27.3 30.0 23.5 80 2.6 SSW 15 20 8 11 1010.0 - 18.6
19/03:00am 27.2 31.6 24.5 85 1.9 WSW 9 9 5 5 1010.7 - 18.6
19/02:30am 26.8 33.2 24.9 89 1.3 CALM 0 0 0 0 1010.9 - 18.6
19/02:00am 26.9 31.3 24.5 87 1.7 WSW 9 13 5 7 1011.0 - 18.6
19/01:30am 26.7 31.8 25.0 90 1.2 WNW 7 7 4 4 1010.9 1009.5 18.6
19/01:00am 26.5 31.3 24.5 89 1.4 WNW 7 11 4 6 1010.8 - 18.6
19/12:30am 26.7 32.5 24.0 85 1.9 CALM 0 6 0 3 1011.0 - 18.6
19/12:00am 26.7 30.9 23.4 82 2.3 SSW 7 13 4 7 1011.0 - 18.6
 
Date/Time
CST
Temp
°C
App
Temp
°C
Dew
Point
Rel
Hum
%
Delta-T
°C
Wind Press
QNH
hPa
Press
MSL
hPa
Rain
since 9 am
mm
Dir
 
Spd
km/h
Gust
km/h
Spd
kts
Gust
kts
18/11:30pm 26.2 30.3 23.9 87 1.6 SSW 9 15 5 8 1010.8 - 18.6
18/11:00pm 26.4 30.4 23.8 85 1.8 S 9 17 5 9 1010.5 - 18.6
18/10:30pm 26.1 31.2 25.0 94 0.8 WSW 7 9 4 5 1010.6 1009.2 18.6
18/10:00pm 26.2 31.7 24.6 91 1.1 NW 4 11 2 6 - - 18.6
18/09:30pm 25.9 29.6 24.5 92 1.0 N 13 17 7 9 1010.5 - 18.6
18/09:00pm 26.0 30.0 23.7 87 1.6 NNE 9 13 5 7 1010.4 - 18.6
18/08:30pm 25.8 28.7 23.2 85 1.8 SSW 13 17 7 9 1010.0 - 18.6
18/08:00pm 25.7 29.4 23.2 86 1.7 S 9 13 5 7 1010.5 - 18.6
18/07:30pm 25.0 28.6 23.8 93 0.8 S 11 17 6 9 1010.6 1009.2 18.6
18/07:00pm 24.8 28.3 23.5 92 0.9 S 11 19 6 10 1010.1 - 18.6
18/06:41pm 24.7 28.7 23.8 95 0.6 S 9 15 5 8 1010.5 - 18.4
18/06:30pm 24.8 28.3 23.6 93 0.8 SSW 11 13 6 7 1010.8 - 18.2
18/06:01pm 24.8 26.5 23.0 90 1.2 SE 19 28 10 15 1010.9 - 10.8
18/06:00pm 24.9 26.6 23.1 90 1.2 SE 19 24 10 13 1010.8 - 10.2
18/05:30pm 26.3 26.7 22.5 79 2.6 SSW 24 33 13 18 1009.3 - 9.4
18/05:00pm 26.4 28.3 24.4 89 1.4 SW 22 26 12 14 1009.3 - 9.2
18/04:35pm 26.3 28.7 24.6 90 1.2 SW 20 30 11 16 1009.3 - 9.0
18/04:30pm 26.5 28.7 24.9 91 1.1 SW 22 30 12 16 1009.3 1007.9 9.0
18/04:05pm 26.2 27.6 23.6 85 1.8 S 22 30 12 16 1008.8 - 4.6
18/04:00pm 25.9 24.7 23.9 89 1.4 SSE 37 56 20 30 1008.2 - 4.4
18/03:46pm 26.6 24.7 23.4 82 2.2 SE 39 69 21 37 1007.1 - 0.8
18/03:43pm 27.5 25.9 23.3 78 2.9 SE 37 67 20 36 1007.2 - 0.2
18/03:34pm 32.8 31.8 21.2 50 7.9 SSE 28 50 15 27 1007.2 - 0.0
18/03:30pm 35.0 36.0 22.1 47 8.9 SSE 20 35 11 19 1007.0 - 0.0
18/03:00pm 37.6 38.7 19.6 35 12.1 N 13 20 7 11 1006.3 - 0.0
18/02:30pm 37.5 39.1 19.9 35 11.9 NE 11 20 6 11 1006.7 - 0.0
18/02:00pm 37.5 38.8 20.2 36 11.7 NE 13 17 7 9 1007.4 - 0.0
18/01:30pm 37.6 39.3 20.2 36 11.8 WNW 11 17 6 9 1007.8 1006.4 0.0
18/01:00pm 36.9 38.8 20.6 38 11.1 WSW 11 19 6 10 1008.4 - 0.0
18/12:30pm 35.8 39.0 20.6 41 10.3 ESE 4 9 2 5 1009.4 - 0.0
18/12:00pm 34.5 38.3 20.9 45 9.2 SW 2 7 1 4 1010.0 - 0.0
18/11:00am 33.3 36.2 20.7 47 8.5 N 6 9 3 5 1010.7 - 0.0
18/10:30am 33.2 36.9 20.7 47 8.4 W 2 9 1 5 1010.8 1009.4 0.0
18/10:00am 32.9 36.8 21.1 50 8.0 SSW 2 6 1 3 1010.9 - 0.0
18/09:30am 32.2 35.2 21.3 52 7.4 E 7 9 4 5 1010.6 - 0.0
18/09:00am 32.2 36.4 21.8 54 7.1 NNE 2 6 1 3 1010.5 - 0.0
18/08:30am 31.9 36.5 22.4 57 6.5 N 2 7 1 4 1010.2 - 0.0
18/08:00am 30.3 33.6 22.6 63 5.3 N 9 11 5 6 1009.8 - 0.0
18/07:30am 29.9 33.9 23.1 67 4.7 N 7 11 4 6 1009.4 1008.0 0.0
18/07:00am 29.1 33.4 23.3 71 4.0 N 6 7 3 4 1009.2 - 0.0
18/06:30am 28.8 32.8 23.1 71 3.9 NW 7 9 4 5 1008.5 - 0.0
18/06:00am 28.8 32.8 23.1 71 3.9 NW 7 9 4 5 1008.0 - 0.0
18/05:30am 28.8 34.4 23.5 73 3.7 CALM 0 0 0 0 1007.6 - 0.0
18/05:00am 28.9 32.6 23.2 71 3.9 WSW 9 11 5 6 1007.7 - 0.0
18/04:30am 29.0 32.9 23.0 70 4.1 NW 7 9 4 5 1007.3 1005.9 0.0
18/04:00am 29.3 33.1 22.7 67 4.5 N 7 11 4 6 1007.3 - 0.0
18/03:30am 29.1 33.1 22.7 68 4.4 NNE 6 9 3 5 1007.4 - 0.0
18/03:00am 29.5 33.1 22.3 65 4.9 NNW 7 9 4 5 1007.2 - 0.0
18/02:30am 29.4 33.5 22.2 65 4.9 NNW 4 7 2 4 1007.1 - 0.0
18/02:00am 29.5 32.8 21.8 63 5.2 WNW 7 9 4 5 1007.0 - 0.0
18/01:30am 29.9 32.9 21.3 60 5.8 N 7 11 4 6 1007.2 1005.8 0.0
18/01:00am 30.1 32.5 20.9 57 6.2 NW 9 13 5 7 1007.1 - 0.0
18/12:30am 30.5 32.4 19.8 52 7.1 N 9 11 5 6 1007.7 - 0.0
18/12:00am 30.8 31.3 19.2 50 7.6 NNW 15 19 8 10 1008.0 - 0.0
 
Date/Time
CST
Temp
°C
App
Temp
°C
Dew
Point
Rel
Hum
%
Delta-T
°C
Wind Press
QNH
hPa
Press
MSL
hPa
Rain
since 9 am
mm
Dir
 
Spd
km/h
Gust
km/h
Spd
kts
Gust
kts
17/11:30pm 31.0 31.7 18.8 48 8.0 N 13 17 7 9 1008.1 - 0.0
17/11:00pm 31.2 31.7 18.4 46 8.3 NW 13 17 7 9 1008.0 - 0.0
17/10:30pm 31.7 30.7 17.6 43 9.1 N 19 24 10 13 1008.0 1006.6 0.0
17/10:00pm 32.2 30.7 16.8 39 9.8 N 20 24 11 13 1007.7 - 0.0
17/09:30pm 32.6 31.1 16.4 37 10.3 N 19 26 10 14 1007.5 - 0.0
17/09:00pm 32.9 32.1 16.0 36 10.7 NNW 15 20 8 11 1007.1 - 0.0
17/08:30pm 33.4 31.4 15.6 34 11.2 N 20 26 11 14 1007.1 - 0.0
17/08:00pm 33.8 31.2 16.8 36 10.9 NNW 26 35 14 19 1006.7 - 0.0
17/07:30pm 34.0 33.1 19.0 41 9.9 N 22 - 12 - - 1005.1 -
17/07:00pm 35.0 33.6 18.8 38 10.7 N 24 28 13 15 1005.5 - 0.0
17/06:30pm 36.4 35.8 18.8 35 11.7 N 20 26 11 14 1004.8 - 0.0
17/06:00pm 36.7 36.3 19.4 36 11.6 NNW 20 30 11 16 1004.1 - 0.0
17/05:30pm 37.5 37.0 18.7 33 12.5 NNW 19 24 10 13 1003.6 - 0.0
17/05:00pm 36.8 36.1 19.5 36 11.6 NW 22 32 12 17 1003.7 - 0.0
17/04:30pm 35.9 33.9 19.1 37 11.2 N 28 41 15 22 1004.1 1002.7 0.0
17/04:00pm 39.0 40.5 17.6 28 14.1 WSW 6 11 3 6 1004.3 - 0.0
17/03:30pm 38.7 39.5 17.4 28 13.9 SSE 9 15 5 8 1004.8 - 0.0
17/03:00pm 38.6 38.9 17.0 28 14.1 WSW 11 17 6 9 1005.1 - 0.0
17/02:30pm 38.6 38.4 16.6 27 14.2 WSW 13 19 7 10 1005.0 - 0.0
17/02:00pm 38.1 38.8 17.9 30 13.3 S 11 20 6 11 1005.6 - 0.0
17/01:30pm 37.4 38.5 18.0 32 12.8 SSE 9 19 5 10 1006.3 1004.9 0.0
17/01:00pm 37.4 38.8 18.6 33 12.5 SE 9 17 5 9 1006.9 - 0.0
17/12:30pm 36.9 37.6 17.9 32 12.5 SSE 11 17 6 9 1007.7 - 0.0
17/12:00pm 36.5 38.0 17.5 32 12.4 W 6 17 3 9 1008.3 - 0.0
17/11:30am 35.5 35.8 17.9 35 11.5 SE 13 24 7 13 1008.8 - 0.0
17/11:00am 35.2 36.2 18.7 37 10.9 S 11 22 6 12 1009.1 - 0.0
17/10:30am 35.0 36.3 19.4 40 10.4 S 11 19 6 10 1009.3 1007.9 0.0
17/10:00am 33.8 34.6 19.0 41 9.8 SSE 13 22 7 12 1009.5 - 0.0
17/09:30am 33.7 34.9 19.9 44 9.2 SSE 13 20 7 11 1009.5 - 0.0
17/09:00am 32.4 33.6 21.5 52 7.4 SSE 17 20 9 11 1009.5 - 0.0
17/08:30am 31.3 34.4 22.9 61 5.8 S 11 17 6 9 1009.4 - 0.0
17/08:00am 29.5 34.1 24.7 75 3.4 SSE 9 13 5 7 1009.1 - 0.0
17/07:30am 29.2 33.2 23.1 69 4.2 SE 7 11 4 6 1008.2 1006.8 0.0
17/07:00am 28.8 32.5 22.5 68 4.3 E 7 11 4 6 1007.7 - 0.0
17/06:30am 28.4 32.2 22.7 71 3.9 SSE 7 9 4 5 1007.2 - 0.0
17/06:00am 28.3 32.2 22.9 72 3.7 E 7 7 4 4 1006.6 - 0.0
17/05:30am 28.4 33.6 23.5 75 3.4 SE 2 6 1 3 1006.2 - 0.0
17/05:00am 29.1 35.6 25.1 79 2.8 CALM 0 0 0 0 1006.0 - 0.0
17/04:30am 29.8 34.8 24.8 74 3.5 W 7 7 4 4 1005.6 1004.2 0.0
17/04:00am 29.7 34.4 24.9 75 3.4 N 9 11 5 6 1005.4 - 0.0
17/03:30am 30.0 34.9 24.6 73 3.8 NNE 7 9 4 5 1005.5 - 0.0
17/03:00am 30.5 35.6 24.1 68 4.5 N 4 7 2 4 1005.5 - 0.0
17/02:30am 30.8 34.0 23.0 63 5.4 N 11 13 6 7 1005.6 - 0.0
17/02:00am 31.2 34.2 21.3 55 6.7 N 7 9 4 5 1005.8 - 0.0
17/01:30am 31.5 34.0 21.1 54 7.0 NNW 9 11 5 6 1006.0 1004.5 0.0
17/01:00am 31.6 34.1 21.1 53 7.1 NW 9 13 5 7 1006.2 - 0.0
17/12:30am 30.7 34.0 22.6 62 5.6 W 9 11 5 6 1006.6 - 0.0
17/12:00am 31.1 35.8 21.9 58 6.3 CALM 0 6 0 3 1007.1 - 0.0
 
Date/Time
CST
Temp
°C
App
Temp
°C
Dew
Point
Rel
Hum
%
Delta-T
°C
Wind Press
QNH
hPa
Press
MSL
hPa
Rain
since 9 am
mm
Dir
 
Spd
km/h
Gust
km/h
Spd
kts
Gust
kts
16/11:30pm 30.5 34.5 22.0 60 5.8 NNE 4 7 2 4 1007.3 - 0.0
16/11:00pm 30.6 34.9 21.9 59 5.9 SSE 2 7 1 4 1007.3 - 0.0
16/10:30pm 30.6 33.3 21.3 57 6.3 S 9 15 5 8 1007.1 1005.7 0.0
16/10:00pm 31.3 34.2 21.1 54 6.9 S 7 11 4 6 1007.2 - 0.0

Other Formats:

Comma delimited format used in spreadsheet applications
http://www.bom.gov.au/fwo/IDD60801/IDD60801.94217.axf

JavaScript Object Notation format (JSON) in row-major order
http://www.bom.gov.au/fwo/IDD60801/IDD60801.94217.json